Time;durP1;ratioP1;P1;durP2;ratioP2;P2;SDS_P1;SDS_P2;PMS_P1;PMS_P2;Temp;Humidity;BMP_temperature;BMP_pressure;BME280_temperature;BME280_humidity;BME280_pressure;Samples;Min_cycle;Max_cycle;Signal;HPM_P1;HPM_P2
2022/11/12 00:02:16;;;;;;;23.77;15.55;;;;;;;4.31;91.64;103078.00;5046415;28;20176;-70
2022/11/12 00:05:02;;;;;;;26.48;15.00;;;;;;;4.30;91.63;103077.13;5043535;28;20076;-70
2022/11/12 00:07:48;;;;;;;25.05;15.18;;;;;;;4.29;91.54;103079.66;5045300;28;20045;-70
2022/11/12 00:10:34;;;;;;;25.65;14.43;;;;;;;4.28;91.66;103075.28;5036075;28;20049;-70
2022/11/12 00:13:19;;;;;;;21.45;14.40;;;;;;;4.26;91.64;103085.69;5050843;28;20056;-70
2022/11/12 00:16:05;;;;;;;24.77;14.18;;;;;;;4.20;91.66;103088.13;5052257;28;20049;-69
2022/11/12 00:18:54;;;;;;;20.42;13.15;;;;;;;4.17;91.48;103080.19;5049092;28;20056;-69
2022/11/12 00:21:40;;;;;;;24.13;14.20;;;;;;;4.09;91.43;103081.66;5045375;28;20064;-70
2022/11/12 00:24:26;;;;;;;24.73;13.80;;;;;;;4.06;91.39;103087.69;5049724;28;20076;-69
2022/11/12 00:27:13;;;;;;;26.67;13.20;;;;;;;4.02;91.50;103091.00;5054951;28;20052;-70
2022/11/12 00:29:59;;;;;;;20.45;13.15;;;;;;;3.98;91.42;103083.91;5048396;28;20117;-70
2022/11/12 00:32:44;;;;;;;22.60;13.30;;;;;;;3.95;91.49;103076.88;5041838;28;20049;-70
2022/11/12 00:35:32;;;;;;;25.23;13.57;;;;;;;3.93;91.47;103081.13;5041590;28;20589;-70
2022/11/12 00:38:17;;;;;;;22.25;13.57;;;;;;;3.90;91.49;103081.06;5049427;28;20093;-70
2022/11/12 00:41:03;;;;;;;20.13;14.55;;;;;;;3.87;91.40;103080.94;5037668;28;20591;-70
2022/11/12 00:43:52;;;;;;;20.88;13.13;;;;;;;3.83;91.22;103076.44;5048421;28;20042;-70
2022/11/12 00:46:38;;;;;;;22.90;13.18;;;;;;;3.81;91.34;103078.13;5050976;28;20169;-69
2022/11/12 00:49:24;;;;;;;21.25;13.20;;;;;;;3.76;91.44;103078.00;5042069;28;20056;-70
2022/11/12 00:52:09;;;;;;;19.75;13.52;;;;;;;3.75;91.63;103083.13;5072097;28;20091;-69
2022/11/12 00:54:56;;;;;;;23.13;13.73;;;;;;;3.74;91.64;103077.03;5041496;28;20042;-69
2022/11/12 00:57:42;;;;;;;22.17;12.82;;;;;;;3.72;91.49;103076.97;5055442;28;20065;-69
2022/11/12 01:00:27;;;;;;;20.13;12.30;;;;;;;3.67;91.41;103075.94;5045942;28;20049;-68
2022/11/12 01:03:13;;;;;;;26.80;15.18;;;;;;;3.64;91.41;103082.78;5046302;28;20108;-68
2022/11/12 01:06:13;;;;;;;22.17;12.32;;;;;;;3.63;91.60;103081.88;5050448;28;20045;-68
2022/11/12 01:09:00;;;;;;;21.20;13.27;;;;;;;3.62;91.63;103079.22;5039145;28;20053;-68
2022/11/12 01:11:46;;;;;;;22.27;13.20;;;;;;;3.63;91.72;103079.25;5039848;28;20061;-69
2022/11/12 01:14:33;;;;;;;19.27;12.90;;;;;;;3.65;91.83;103071.50;5037759;28;20077;-69
2022/11/12 01:17:18;;;;;;;23.33;13.25;;;;;;;3.65;91.64;103069.78;5050358;28;20041;-68
2022/11/12 01:20:05;;;;;;;22.92;12.98;;;;;;;3.64;91.71;103074.97;5042713;28;20052;-68
2022/11/12 01:22:50;;;;;;;22.35;13.57;;;;;;;3.64;91.72;103073.22;5050340;28;20080;-68
2022/11/12 01:25:37;;;;;;;24.58;12.93;;;;;;;3.65;91.98;103075.00;5056595;28;20423;-68
2022/11/12 01:28:22;;;;;;;24.10;12.35;;;;;;;3.68;92.27;103067.28;5035999;28;20120;-67
2022/11/12 01:31:19;;;;;;;21.58;12.25;;;;;;;3.67;92.40;103062.91;5047765;28;20049;-68
2022/11/12 01:34:08;;;;;;;21.75;12.80;;;;;;;3.64;92.17;103059.31;5037836;28;20054;-68
2022/11/12 01:36:54;;;;;;;19.50;11.38;;;;;;;3.62;92.40;103051.41;5048984;28;20045;-68
2022/11/12 01:39:40;;;;;;;19.85;11.77;;;;;;;3.56;92.22;103053.81;5049125;28;20103;-69
2022/11/12 01:42:31;;;;;;;20.60;12.57;;;;;;;3.56;92.35;103061.63;5040446;28;20502;-68
2022/11/12 01:45:18;;;;;;;21.05;12.27;;;;;;;3.50;92.35;103053.63;5046692;28;20133;-68
2022/11/12 01:48:04;;;;;;;20.25;11.90;;;;;;;3.46;92.43;103055.19;5057672;28;20504;-69
2022/11/12 01:50:51;;;;;;;22.15;12.02;;;;;;;3.38;92.29;103054.06;5040625;28;20184;-69
2022/11/12 01:53:48;;;;;;;19.65;12.02;;;;;;;3.36;92.35;103058.31;5040575;28;20042;-68
2022/11/12 01:56:36;;;;;;;18.98;11.88;;;;;;;3.29;92.27;103057.25;5035109;28;20131;-67
2022/11/12 01:59:36;;;;;;;21.77;11.20;;;;;;;3.24;92.28;103057.09;5047586;28;20057;-68
2022/11/12 02:02:23;;;;;;;20.77;11.80;;;;;;;3.18;92.28;103051.63;5031160;28;20046;-71
2022/11/12 02:05:11;;;;;;;16.23;10.90;;;;;;;3.16;92.37;103049.81;5041685;28;20076;-71
2022/11/12 02:08:00;;;;;;;19.92;11.23;;;;;;;3.14;92.21;103059.28;5048171;28;20591;-68
2022/11/12 02:10:45;;;;;;;16.77;11.00;;;;;;;3.08;92.28;103050.44;5042766;28;20064;-68
2022/11/12 02:16:40;;;;;;;21.95;11.65;;;;;;;3.01;92.55;103045.81;5030429;28;20078;-69
2022/11/12 02:19:26;;;;;;;20.77;11.70;;;;;;;2.99;92.30;103046.59;5045867;28;20052;-69
2022/11/12 02:22:11;;;;;;;17.00;10.77;;;;;;;2.94;92.37;103055.13;5050082;28;20053;-68
2022/11/12 02:24:57;;;;;;;16.98;10.23;;;;;;;2.92;92.31;103050.69;5046057;28;20052;-70
2022/11/12 02:27:44;;;;;;;19.83;11.27;;;;;;;2.86;92.24;103056.56;5049377;28;20507;-70
2022/11/12 02:30:38;;;;;;;16.98;10.50;;;;;;;2.82;92.28;103053.78;5043023;28;20201;-70
2022/11/12 02:33:24;;;;;;;15.18;9.48;;;;;;;2.78;92.16;103055.38;5050890;28;20045;-69
2022/11/12 02:36:09;;;;;;;16.48;10.52;;;;;;;2.76;92.15;103057.94;5040157;28;20048;-70
2022/11/12 02:38:56;;;;;;;13.98;10.15;;;;;;;2.71;92.13;103056.88;5039460;28;20192;-70
2022/11/12 02:41:42;;;;;;;16.15;9.65;;;;;;;2.71;92.10;103056.88;5041396;28;20057;-69
2022/11/12 02:44:29;;;;;;;18.10;10.57;;;;;;;2.70;92.06;103049.00;5040625;28;20053;-68
2022/11/12 02:47:15;;;;;;;17.30;9.95;;;;;;;2.68;92.19;103043.75;5047014;28;20494;-70
2022/11/12 02:50:03;;;;;;;17.75;10.25;;;;;;;2.68;92.21;103048.03;5036761;28;20053;-70
2022/11/12 02:52:49;;;;;;;17.52;10.00;;;;;;;2.63;92.22;103042.66;5033649;28;20504;-69
2022/11/12 02:55:35;;;;;;;15.13;9.70;;;;;;;2.62;92.25;103048.69;5041970;28;20089;-69
2022/11/12 02:58:21;;;;;;;15.00;10.05;;;;;;;2.58;92.21;103049.44;5040838;28;20045;-69
2022/11/12 03:01:07;;;;;;;18.85;9.98;;;;;;;2.55;92.25;103044.09;5036933;28;20183;-69
2022/11/12 03:03:53;;;;;;;21.00;10.43;;;;;;;2.54;92.35;103044.91;5047556;28;20045;-68
2022/11/12 03:06:38;;;;;;;17.70;10.20;;;;;;;2.53;92.44;103043.16;5033197;28;20054;-69
2022/11/12 03:09:24;;;;;;;21.33;10.05;;;;;;;2.52;92.50;103047.47;5034775;28;20065;-70
2022/11/12 03:12:10;;;;;;;15.88;9.63;;;;;;;2.49;92.41;103050.81;5031357;28;20067;-69
2022/11/12 03:14:56;;;;;;;16.65;9.20;;;;;;;2.48;92.20;103041.28;5036529;28;20044;-69
2022/11/12 03:17:42;;;;;;;15.63;9.77;;;;;;;2.47;92.25;103042.09;5045507;28;20551;-70
2022/11/12 03:20:28;;;;;;;16.52;10.35;;;;;;;2.49;92.27;103039.53;5037987;28;20049;-69
2022/11/12 03:23:14;;;;;;;15.85;9.65;;;;;;;2.51;92.35;103035.28;5041671;28;20475;-69
2022/11/12 03:26:04;;;;;;;16.55;9.63;;;;;;;2.52;92.43;103037.06;5054060;28;20176;-70
2022/11/12 03:28:50;;;;;;;19.73;10.05;;;;;;;2.54;92.33;103042.31;5052285;28;20626;-69
2022/11/12 03:31:38;;;;;;;15.48;10.05;;;;;;;2.55;92.42;103042.38;5045713;28;20046;-69
2022/11/12 03:34:23;;;;;;;13.88;8.57;;;;;;;2.57;92.37;103047.66;5051471;28;20077;-69
2022/11/12 03:37:09;;;;;;;14.93;9.10;;;;;;;2.59;92.34;103039.06;5051814;28;20180;-67
2022/11/12 03:39:56;;;;;;;15.02;8.82;;;;;;;2.62;92.49;103033.97;5049131;28;20041;-68
2022/11/12 03:42:49;;;;;;;14.35;9.18;;;;;;;2.66;92.46;103036.69;5045652;28;20124;-67
2022/11/12 03:45:35;;;;;;;15.38;9.32;;;;;;;2.67;92.45;103036.75;5052002;28;20869;-68
2022/11/12 03:48:21;;;;;;;15.60;9.20;;;;;;;2.67;92.34;103031.56;5039965;28;20135;-68
2022/11/12 03:51:07;;;;;;;13.32;8.80;;;;;;;2.67;92.27;103034.16;5050779;28;20045;-67
2022/11/12 03:53:53;;;;;;;14.40;9.00;;;;;;;2.67;92.50;103031.56;5040045;28;20034;-68
2022/11/12 03:56:38;;;;;;;18.88;9.20;;;;;;;2.68;92.38;103042.84;5045277;28;20539;-68
2022/11/12 03:59:24;;;;;;;14.07;8.52;;;;;;;2.68;92.40;103041.13;5051666;28;20523;-68
2022/11/12 04:02:13;;;;;;;11.50;8.38;;;;;;;2.70;92.41;103041.19;5054100;28;20051;-68
2022/11/12 04:11:15;;;;;;;14.27;9.27;;;;;;;2.68;92.42;103035.03;5053133;28;20057;-68
2022/11/12 04:14:01;;;;;;;14.02;9.23;;;;;;;2.67;92.47;103035.84;5040589;28;20052;-69
2022/11/12 04:22:58;;;;;;;12.13;8.40;;;;;;;2.70;92.44;103028.16;5044645;28;20555;-67
2022/11/12 04:31:53;;;;;;;12.35;7.80;;;;;;;2.60;92.22;103026.91;5043122;28;20125;-67
2022/11/12 04:34:40;;;;;;;14.20;9.20;;;;;;;2.56;92.33;103020.72;5036404;28;20562;-68
2022/11/12 04:37:43;;;;;;;13.68;8.82;;;;;;;2.55;92.32;103020.66;5044726;28;20042;-68
2022/11/12 04:46:42;;;;;;;12.18;8.45;;;;;;;2.55;92.47;103025.88;5050153;28;20093;-68
2022/11/12 04:49:28;;;;;;;13.73;8.82;;;;;;;2.54;92.47;103031.91;5041863;28;20053;-68
2022/11/12 04:52:15;;;;;;;13.10;8.52;;;;;;;2.52;92.44;103025.75;5044282;28;20149;-68
2022/11/12 04:55:00;;;;;;;13.88;8.73;;;;;;;2.49;92.37;103024.78;5042619;28;20076;-68
2022/11/12 04:57:47;;;;;;;15.10;9.25;;;;;;;2.47;92.44;103033.38;5049387;28;20048;-68
2022/11/12 05:00:32;;;;;;;12.75;8.80;;;;;;;2.46;92.50;103023.78;5040170;28;20061;-67
2022/11/12 05:03:18;;;;;;;15.52;8.98;;;;;;;2.45;92.62;103022.00;5049437;28;20504;-67
2022/11/12 05:09:10;;;;;;;12.73;7.97;;;;;;;2.40;92.75;103015.75;5047034;28;20508;-68
2022/11/12 05:11:56;;;;;;;13.43;8.32;;;;;;;2.35;92.74;103007.78;5050635;28;20100;-68
2022/11/12 05:14:43;;;;;;;12.43;7.88;;;;;;;2.29;92.65;103003.22;5035838;28;20088;-68
2022/11/12 05:17:29;;;;;;;13.05;7.80;;;;;;;2.27;92.70;103006.59;5035736;28;20080;-67
2022/11/12 05:20:15;;;;;;;14.20;8.23;;;;;;;2.21;92.59;102995.91;5053323;28;20037;-68
2022/11/12 05:23:02;;;;;;;9.88;7.53;;;;;;;2.16;92.59;102999.25;5041366;28;20049;-67
2022/11/12 05:25:52;;;;;;;12.82;8.02;;;;;;;2.12;92.70;102989.53;5037440;28;20041;-70
2022/11/12 05:28:38;;;;;;;12.88;8.02;;;;;;;2.09;92.71;102989.41;5050573;28;20049;-70
2022/11/12 05:31:24;;;;;;;13.70;8.40;;;;;;;2.05;92.72;102984.94;5049214;28;20047;-69
2022/11/12 05:34:10;;;;;;;11.90;7.82;;;;;;;2.03;92.70;102983.09;5041840;28;20050;-69
2022/11/12 05:36:56;;;;;;;12.10;7.95;;;;;;;1.99;92.55;102985.56;5049830;28;20139;-70
2022/11/12 05:39:41;;;;;;;14.52;8.30;;;;;;;1.97;92.60;102984.63;5051964;28;20100;-70
2022/11/12 05:42:27;;;;;;;12.13;8.02;;;;;;;1.94;92.62;102988.81;5049591;28;20045;-70
2022/11/12 05:45:13;;;;;;;13.60;8.38;;;;;;;1.92;92.57;102987.84;5044893;28;20041;-70
2022/11/12 05:47:58;;;;;;;12.93;8.90;;;;;;;1.92;92.56;102987.84;5042301;28;20041;-71
2022/11/12 05:50:49;;;;;;;12.60;8.05;;;;;;;1.94;92.70;102981.00;5049391;28;20052;-70
2022/11/12 05:53:54;;;;;;;13.23;8.73;;;;;;;1.95;92.81;102981.06;5045635;28;20499;-70
2022/11/12 05:56:40;;;;;;;16.08;9.50;;;;;;;1.98;92.91;102980.31;5056518;28;20168;-70
2022/11/12 05:59:26;;;;;;;13.57;9.43;;;;;;;2.01;92.94;102980.41;5043232;28;20116;-69
2022/11/12 06:02:12;;;;;;;14.45;8.90;;;;;;;2.03;92.85;102986.56;5043511;28;20049;-69
2022/11/12 06:05:00;;;;;;;13.45;8.65;;;;;;;2.06;93.14;102985.78;5046798;28;20058;-69
2022/11/12 06:07:45;;;;;;;12.68;8.82;;;;;;;2.09;93.30;102988.53;5044022;28;20068;-70
2022/11/12 06:10:32;;;;;;;11.90;8.25;;;;;;;2.08;93.05;102994.56;5050394;28;20067;-70
2022/11/12 06:13:21;;;;;;;12.65;7.90;;;;;;;2.04;93.21;102990.94;5041085;28;20053;-71
2022/11/12 06:16:08;;;;;;;12.05;8.02;;;;;;;2.03;93.32;102989.19;5045471;28;20042;-71
2022/11/12 06:18:54;;;;;;;13.65;7.72;;;;;;;2.00;93.32;102996.84;5047913;28;20054;-70
2022/11/12 06:21:40;;;;;;;12.20;8.18;;;;;;;1.94;93.07;103005.28;5038878;28;20129;-70
2022/11/12 06:24:27;;;;;;;11.23;7.85;;;;;;;1.92;92.96;103003.47;5038737;28;20091;-71
2022/11/12 06:27:22;;;;;;;10.98;7.75;;;;;;;1.88;93.02;103002.47;5053425;28;20052;-70
2022/11/12 06:30:09;;;;;;;16.08;7.38;;;;;;;1.83;93.04;103004.00;5048295;28;20041;-69
2022/11/12 06:32:54;;;;;;;10.23;7.60;;;;;;;1.80;92.88;103014.28;5050122;28;20123;-68
2022/11/12 06:35:40;;;;;;;10.40;7.85;;;;;;;1.77;92.96;103014.13;5049383;28;20471;-68
2022/11/12 06:38:32;;;;;;;11.48;7.90;;;;;;;1.75;92.96;103016.69;5038096;28;20457;-68
2022/11/12 06:41:18;;;;;;;14.75;8.18;;;;;;;1.75;93.25;103016.69;5049460;28;20123;-68
2022/11/12 06:44:04;;;;;;;16.25;8.13;;;;;;;1.78;93.37;103014.19;5047584;28;20041;-68
2022/11/12 06:46:49;;;;;;;13.18;8.43;;;;;;;1.81;93.47;103019.53;5047467;28;20057;-69
2022/11/12 06:49:36;;;;;;;14.05;8.18;;;;;;;1.80;93.50;103016.88;5043916;28;20052;-68
2022/11/12 06:52:24;;;;;;;10.65;7.35;;;;;;;1.79;93.40;103022.91;5040675;28;20037;-69
2022/11/12 06:55:09;;;;;;;11.15;7.82;;;;;;;1.78;93.31;103018.50;5049217;28;20046;-69
2022/11/12 06:57:56;;;;;;;15.70;8.48;;;;;;;1.76;93.37;103020.16;5049905;28;20042;-70
2022/11/12 07:00:42;;;;;;;12.02;7.78;;;;;;;1.75;93.27;103020.97;5040589;28;21009;-70
2022/11/12 07:03:28;;;;;;;14.88;8.00;;;;;;;1.75;93.18;103013.19;5043505;28;20045;-70
2022/11/12 07:06:17;;;;;;;12.70;8.30;;;;;;;1.76;93.15;103017.56;5036630;28;20099;-71
2022/11/12 07:09:05;;;;;;;12.10;7.65;;;;;;;1.76;93.22;103015.88;5050986;28;20049;-70
2022/11/12 07:11:51;;;;;;;14.07;8.00;;;;;;;1.77;93.03;103020.25;5049428;28;20064;-71
2022/11/12 07:14:37;;;;;;;11.70;7.85;;;;;;;1.79;93.16;103022.91;5045606;28;20052;-68
2022/11/12 07:17:22;;;;;;;11.38;7.90;;;;;;;1.82;93.08;103029.09;5040969;28;20042;-69
2022/11/12 07:20:09;;;;;;;12.32;7.57;;;;;;;1.86;93.11;103031.03;5044749;28;20045;-69
2022/11/12 07:23:00;;;;;;;9.98;7.53;;;;;;;1.91;92.67;103025.09;5048248;28;20098;-68
2022/11/12 07:25:45;;;;;;;11.00;7.75;;;;;;;1.94;92.95;103028.72;5052151;28;20508;-68
2022/11/12 07:28:32;;;;;;;12.02;8.57;;;;;;;2.00;93.08;103035.88;5044302;28;20053;-69
2022/11/12 07:31:19;;;;;;;9.95;7.70;;;;;;;2.08;93.20;103037.09;5046624;28;20048;-69
2022/11/12 07:34:06;;;;;;;11.98;8.88;;;;;;;2.19;93.43;103036.63;5046878;28;20073;-66
2022/11/12 07:36:51;;;;;;;12.60;8.07;;;;;;;2.31;93.54;103042.31;5052997;28;20057;-66
2022/11/12 07:39:37;;;;;;;11.18;7.97;;;;;;;2.42;93.35;103047.94;5048468;28;20037;-67
2022/11/12 07:42:23;;;;;;;11.43;7.93;;;;;;;2.50;93.19;103046.53;5038102;28;20388;-67
2022/11/12 07:45:09;;;;;;;13.90;7.82;;;;;;;2.57;93.21;103045.91;5052132;28;20531;-66
2022/11/12 07:47:58;;;;;;;11.30;7.40;;;;;;;2.64;93.05;103039.25;5052011;28;20650;-65
2022/11/12 07:50:44;;;;;;;11.00;8.23;;;;;;;2.72;92.85;103045.63;5042889;28;20043;-69
2022/11/12 07:53:30;;;;;;;11.68;7.93;;;;;;;2.80;93.04;103041.56;5054314;28;20824;-67
2022/11/12 07:56:20;;;;;;;11.60;8.52;;;;;;;2.91;93.16;103041.09;5052302;28;21794;-69
2022/11/12 07:59:07;;;;;;;17.38;10.07;;;;;;;3.09;93.30;103046.09;5051118;28;20100;-67
2022/11/12 08:01:53;;;;;;;13.43;8.75;;;;;;;3.26;93.45;103041.47;5052532;28;20061;-68
2022/11/12 08:04:38;;;;;;;10.50;7.93;;;;;;;3.49;93.58;103041.41;5051857;28;20068;-68
2022/11/12 08:07:24;;;;;;;16.38;10.50;;;;;;;3.72;93.83;103042.19;5056583;28;20538;-68
2022/11/12 08:10:10;;;;;;;14.55;10.60;;;;;;;3.96;93.95;103047.31;5066722;28;20530;-68
2022/11/12 08:12:59;;;;;;;14.23;10.15;;;;;;;4.26;94.40;103043.03;5058519;28;20111;-68
2022/11/12 08:15:46;;;;;;;15.95;10.02;;;;;;;4.54;94.52;103043.88;5050267;28;20528;-68
2022/11/12 08:18:37;;;;;;;13.63;9.63;;;;;;;4.75;94.29;103043.63;5052032;28;20044;-69
2022/11/12 08:21:23;;;;;;;15.05;9.65;;;;;;;4.90;93.94;103051.00;5050954;28;20053;-69
2022/11/12 08:24:09;;;;;;;15.02;10.00;;;;;;;4.97;93.71;103050.38;5051827;28;20050;-69
2022/11/12 08:26:55;;;;;;;16.00;10.32;;;;;;;5.12;93.59;103052.53;5049815;28;20151;-69
2022/11/12 08:29:42;;;;;;;13.63;9.70;;;;;;;5.24;93.63;103051.97;5050337;28;20170;-68
2022/11/12 08:32:28;;;;;;;13.48;9.82;;;;;;;5.40;93.79;103054.13;5056876;28;20046;-69
2022/11/12 08:35:14;;;;;;;11.70;8.75;;;;;;;5.52;93.83;103053.59;5053391;28;20050;-68
2022/11/12 08:38:03;;;;;;;11.65;8.10;;;;;;;5.69;93.90;103053.13;5049054;28;20625;-68
2022/11/12 08:40:49;;;;;;;11.93;7.75;;;;;;;5.84;93.74;103056.16;5043462;28;20540;-68
2022/11/12 08:43:36;;;;;;;12.27;8.18;;;;;;;5.99;93.56;103058.31;5049480;28;20045;-67
2022/11/12 08:46:23;;;;;;;11.20;8.00;;;;;;;6.13;93.47;103053.41;5035255;28;20135;-68
2022/11/12 08:49:08;;;;;;;15.57;8.85;;;;;;;6.21;93.08;103051.84;5047220;28;20045;-67
2022/11/12 08:51:54;;;;;;;9.73;6.70;;;;;;;6.37;92.90;103046.94;5047396;28;20092;-66
2022/11/12 08:54:40;;;;;;;10.32;7.20;;;;;;;6.55;92.80;103061.31;5049501;28;20116;-67
2022/11/12 08:57:26;;;;;;;9.35;7.35;;;;;;;6.70;92.50;103061.63;5047647;28;20044;-69
2022/11/12 09:00:13;;;;;;;10.95;7.13;;;;;;;6.73;91.90;103063.44;5047724;28;20048;-68
2022/11/12 09:03:03;;;;;;;11.75;7.55;;;;;;;6.76;91.78;103047.78;5046092;28;20042;-68
2022/11/12 09:05:51;;;;;;;11.55;7.57;;;;;;;6.82;91.61;103055.75;5048640;28;20056;-69
2022/11/12 09:08:39;;;;;;;12.18;7.97;;;;;;;6.88;91.45;103057.63;5048787;28;20038;-69
2022/11/12 09:11:25;;;;;;;11.50;7.38;;;;;;;6.96;91.12;103062.19;5048355;28;20061;-68
2022/11/12 09:14:13;;;;;;;10.93;7.57;;;;;;;7.03;90.91;103068.44;5047342;28;20530;-68
2022/11/12 09:17:03;;;;;;;11.23;7.43;;;;;;;7.08;90.85;103063.28;5051047;28;20076;-69
2022/11/12 09:19:50;;;;;;;10.32;7.68;;;;;;;7.13;91.02;103062.53;5046560;28;20182;-69
2022/11/12 09:22:36;;;;;;;9.98;7.35;;;;;;;7.29;90.71;103070.69;5046844;28;20119;-68
2022/11/12 09:25:23;;;;;;;10.57;7.68;;;;;;;7.36;90.42;103064.72;5041898;28;20042;-68
2022/11/12 09:28:18;;;;;;;10.60;7.13;;;;;;;7.43;90.32;103070.94;5046388;28;20044;-68
2022/11/12 09:31:06;;;;;;;11.45;7.85;;;;;;;7.51;90.14;103061.47;5034410;28;20582;-68
2022/11/12 09:33:52;;;;;;;9.85;7.50;;;;;;;7.64;89.56;103072.19;5035375;28;20182;-69
2022/11/12 09:36:39;;;;;;;12.32;7.20;;;;;;;7.74;89.24;103069.75;5039986;28;20164;-68
2022/11/12 09:39:25;;;;;;;9.60;7.10;;;;;;;7.86;89.24;103062.94;5048007;28;20038;-69
2022/11/12 09:42:18;;;;;;;10.40;7.72;;;;;;;8.00;89.03;103065.78;5052250;28;20111;-68
2022/11/12 09:45:29;;;;;;;14.10;8.27;;;;;;;8.14;88.59;103069.50;5050015;28;20074;-69
2022/11/12 09:48:25;;;;;;;11.93;7.65;;;;;;;8.21;88.14;103068.75;5041980;28;20040;-69
2022/11/12 09:51:26;;;;;;;13.35;7.95;;;;;;;8.36;87.76;103072.47;5035214;28;20123;-69
2022/11/12 09:54:30;;;;;;;9.63;7.22;;;;;;;8.50;87.83;103076.22;5035642;28;20045;-69
2022/11/12 09:57:16;;;;;;;11.27;6.90;;;;;;;8.67;86.91;103072.94;5045401;28;20179;-70
2022/11/12 10:00:21;;;;;;;10.27;7.53;;;;;;;8.84;86.51;103065.25;5050639;28;20041;-68
2022/11/12 10:03:44;;;;;;;10.50;7.35;;;;;;;8.98;86.07;103063.69;5044069;28;20061;-68
2022/11/12 10:06:52;;;;;;;10.30;7.45;;;;;;;9.14;85.38;103061.22;5047063;28;20174;-68
2022/11/12 10:09:58;;;;;;;11.38;8.60;;;;;;;9.30;85.21;103057.91;5042790;28;20042;-68
2022/11/12 10:13:19;;;;;;;10.90;8.02;;;;;;;9.48;84.93;103051.06;5048864;28;20052;-69
2022/11/12 10:16:42;;;;;;;12.23;7.50;;;;;;;9.61;84.61;103036.25;5045261;28;20052;-68
2022/11/12 10:19:41;;;;;;;11.18;7.40;;;;;;;9.77;84.52;103040.75;5050589;28;20045;-69
2022/11/12 10:22:47;;;;;;;11.80;7.75;;;;;;;9.93;83.25;103038.25;5051384;28;20038;-69
2022/11/12 10:25:36;;;;;;;12.38;7.95;;;;;;;10.04;83.09;103025.16;5048174;28;20049;-68
2022/11/12 10:28:42;;;;;;;13.88;7.78;;;;;;;10.18;82.33;103026.13;5052583;28;20726;-68
2022/11/12 10:31:29;;;;;;;13.65;7.78;;;;;;;10.31;82.33;103036.75;5047647;28;20089;-69
2022/11/12 10:34:20;;;;;;;10.57;7.68;;;;;;;10.43;82.13;103018.38;5044452;28;20041;-69
2022/11/12 10:37:44;;;;;;;10.38;7.32;;;;;;;10.56;82.34;103020.22;5050418;28;20044;-69
2022/11/12 10:40:37;;;;;;;10.95;7.55;;;;;;;10.75;82.25;103022.94;5048680;28;20029;-68
2022/11/12 10:43:27;;;;;;;11.00;7.22;;;;;;;10.91;81.76;103017.72;5045508;28;20769;-69
2022/11/12 10:46:42;;;;;;;10.02;7.00;;;;;;;11.03;81.54;103023.91;5041560;28;20049;-69
2022/11/12 10:49:34;;;;;;;8.35;6.38;;;;;;;11.15;81.14;103014.25;5043842;28;20145;-68
2022/11/12 10:52:23;;;;;;;8.68;6.55;;;;;;;11.26;80.82;103004.59;5055924;28;20038;-68
2022/11/12 10:55:35;;;;;;;8.70;6.22;;;;;;;11.39;80.44;103005.47;5048036;28;20484;-68
2022/11/12 10:58:23;;;;;;;10.13;5.95;;;;;;;11.51;79.26;103001.97;5049056;28;20053;-68
2022/11/12 11:01:22;;;;;;;7.63;5.95;;;;;;;11.63;78.71;102994.03;5041483;28;20511;-69
2022/11/12 11:04:32;;;;;;;10.00;6.28;;;;;;;11.77;78.74;102995.81;5030596;28;20046;-69
2022/11/12 11:07:25;;;;;;;8.80;5.70;;;;;;;11.88;77.98;102988.75;5046473;28;20514;-70
2022/11/12 11:10:34;;;;;;;10.23;6.10;;;;;;;11.98;77.59;102979.06;5038632;28;20072;-69
2022/11/12 11:13:27;;;;;;;6.53;5.20;;;;;;;12.06;76.29;102976.41;5036939;28;20169;-70
2022/11/12 11:16:18;;;;;;;6.90;5.43;;;;;;;12.15;76.12;102978.16;5043822;28;20419;-70
2022/11/12 11:19:05;;;;;;;8.43;5.60;;;;;;;12.23;76.01;102976.34;5049512;28;20042;-69
2022/11/12 11:22:15;;;;;;;7.88;5.80;;;;;;;12.29;75.56;102973.69;5048130;28;20049;-69
2022/11/12 11:25:27;;;;;;;9.85;6.18;;;;;;;12.36;74.77;102979.84;5013530;28;20087;-70
2022/11/12 11:28:38;;;;;;;7.68;5.80;;;;;;;12.40;74.10;102978.94;5038709;28;20041;-70
2022/11/12 11:31:46;;;;;;;7.45;5.50;;;;;;;12.49;74.64;102978.00;5043636;28;20057;-69
2022/11/12 11:35:01;;;;;;;7.82;6.03;;;;;;;12.62;75.35;102969.13;5048988;28;20231;-69
2022/11/12 11:38:29;;;;;;;8.65;6.10;;;;;;;12.78;74.47;102975.22;5041155;28;20041;-70
2022/11/12 11:41:36;;;;;;;8.38;6.07;;;;;;;12.84;73.14;102966.38;5051100;28;20440;-70
2022/11/12 11:44:56;;;;;;;8.60;5.90;;;;;;;12.93;72.66;102968.97;5055199;28;20093;-70
2022/11/12 11:48:23;;;;;;;9.50;5.97;;;;;;;12.97;73.25;102960.09;5060135;28;20056;-71
2022/11/12 11:51:45;;;;;;;7.47;5.82;;;;;;;13.05;73.41;102957.41;5053794;28;20617;-70
2022/11/12 11:55:11;;;;;;;8.75;6.18;;;;;;;13.18;73.66;102961.72;5033506;28;20522;-70
2022/11/12 11:58:51;;;;;;;7.63;5.45;;;;;;;13.29;73.03;102955.47;5040293;28;20048;-70
2022/11/12 12:02:04;;;;;;;8.18;5.22;;;;;;;13.36;72.21;102952.78;5054609;28;20045;-70
2022/11/12 12:04:55;;;;;;;10.38;5.38;;;;;;;13.41;71.63;102959.81;5048896;28;20042;-70
2022/11/12 12:08:07;;;;;;;6.57;5.40;;;;;;;13.45;72.43;102958.91;5037712;28;20052;-69
2022/11/12 12:11:21;;;;;;;6.80;5.65;;;;;;;13.55;72.80;102959.69;5044423;28;20062;-70
2022/11/12 12:15:14;;;;;;;9.52;5.70;;;;;;;13.63;70.50;102960.53;5047231;28;20042;-70
2022/11/12 12:18:34;;;;;;;7.25;5.43;;;;;;;13.67;70.22;102956.94;5042787;28;20041;-70
2022/11/12 12:21:27;;;;;;;7.93;5.00;;;;;;;13.74;69.72;102953.31;5044029;28;21703;-70
2022/11/12 12:24:28;;;;;;;7.25;5.38;;;;;;;13.80;69.90;102949.72;5047688;28;20054;-68
2022/11/12 12:27:25;;;;;;;8.38;5.60;;;;;;;13.84;69.41;102954.13;5061994;28;20041;-68
2022/11/12 12:30:22;;;;;;;8.02;5.20;;;;;;;13.87;69.37;102943.50;5050706;28;20042;-69
2022/11/12 12:33:56;;;;;;;6.90;4.82;;;;;;;13.94;69.86;102939.88;5045893;28;20180;-69
2022/11/12 12:37:10;;;;;;;8.68;5.63;;;;;;;13.97;70.16;102937.19;5059279;28;20042;-69
2022/11/12 12:40:31;;;;;;;7.35;5.28;;;;;;;14.01;69.26;102929.19;5048187;28;20170;-69
2022/11/12 12:43:51;;;;;;;6.60;4.97;;;;;;;14.03;68.39;102932.69;5048693;28;20553;-69
2022/11/12 12:46:57;;;;;;;6.40;4.65;;;;;;;14.02;68.60;102930.94;5044947;28;20907;-70
2022/11/12 12:49:49;;;;;;;6.13;4.50;;;;;;;14.06;68.81;102937.97;5049143;28;20042;-71
2022/11/12 12:53:15;;;;;;;7.75;4.47;;;;;;;14.07;68.55;102937.94;5050032;28;20195;-70
2022/11/12 12:56:30;;;;;;;6.82;4.07;;;;;;;14.05;68.31;102930.91;5048348;28;20097;-70
2022/11/12 12:59:31;;;;;;;5.57;4.13;;;;;;;14.02;67.45;102917.69;5043606;28;20049;-69
2022/11/12 13:02:25;;;;;;;6.63;3.95;;;;;;;14.04;66.91;102918.53;5046413;28;20034;-69
2022/11/12 13:05:42;;;;;;;6.70;4.60;;;;;;;14.04;67.33;102907.94;5041571;28;20046;-70
2022/11/12 13:08:36;;;;;;;7.13;4.90;;;;;;;14.06;67.49;102906.16;5032240;28;20185;-69
2022/11/12 13:15:12;;;;;;;5.45;3.92;;;;;;;14.14;66.80;102899.84;5049785;28;20040;-70
2022/11/12 13:17:59;;;;;;;7.75;4.15;;;;;;;14.18;66.87;102902.47;5060196;28;20046;-70
2022/11/12 13:21:10;;;;;;;5.45;3.70;;;;;;;14.16;66.02;102889.22;5047433;28;20041;-69
2022/11/12 13:24:06;;;;;;;5.53;4.50;;;;;;;14.16;66.96;102897.19;5048216;28;20113;-72
2022/11/12 13:26:56;;;;;;;7.50;4.40;;;;;;;14.19;66.51;102886.56;5047033;28;20209;-70
2022/11/12 13:29:44;;;;;;;7.65;4.28;;;;;;;14.19;66.71;102889.19;5050197;28;20041;-70
2022/11/12 13:32:42;;;;;;;5.68;4.10;;;;;;;14.23;66.49;102890.03;5047725;28;20046;-70
2022/11/12 13:35:38;;;;;;;7.18;4.10;;;;;;;14.25;65.79;102886.44;5050438;28;20050;-70
2022/11/12 13:38:25;;;;;;;6.47;4.38;;;;;;;14.23;65.93;102885.59;5046392;28;20041;-69
2022/11/12 13:42:46;;;;;;;5.88;4.15;;;;;;;14.21;66.21;102886.53;5049843;28;20045;-70
2022/11/12 13:44:28;;;;;;;5.90;4.32;;;;;;;14.23;65.60;102885.59;5045448;28;20050;-70
2022/11/12 13:47:23;;;;;;;7.22;4.50;;;;;;;14.22;65.92;102880.31;5047555;28;20116;-70
2022/11/12 13:50:22;;;;;;;7.85;4.68;;;;;;;14.22;66.27;102883.84;5048989;28;20052;-70
2022/11/12 13:53:18;;;;;;;7.20;4.22;;;;;;;14.16;66.75;102875.97;5047272;28;20688;-72
2022/11/12 13:56:05;;;;;;;7.18;4.60;;;;;;;14.21;65.97;102879.41;5047078;28;20502;-70